createdAt,value
2018-01-29T00:01:03.260Z,28.20
2018-01-29T00:03:30.952Z,27.27
2018-01-29T00:05:58.638Z,27.40
2018-01-29T00:08:26.332Z,28.47
2018-01-29T00:10:54.019Z,28.70
2018-01-29T00:13:21.685Z,25.47
2018-01-29T00:15:49.327Z,25.70
2018-01-29T00:18:17.019Z,27.13
2018-01-29T00:20:45.899Z,26.70
2018-01-29T00:23:13.620Z,27.10
2018-01-29T00:25:41.228Z,25.90
2018-01-29T00:28:08.905Z,28.80
2018-01-29T00:30:37.355Z,26.93
2018-01-29T00:33:05.049Z,24.87
2018-01-29T00:35:33.514Z,25.07
2018-01-29T00:38:01.197Z,25.07
2018-01-29T00:40:28.883Z,26.93
2018-01-29T00:42:56.557Z,27.73
2018-01-29T00:45:24.242Z,24.50
2018-01-29T00:47:51.916Z,26.50
2018-01-29T00:50:19.746Z,27.43
2018-01-29T00:52:47.466Z,27.03
2018-01-29T00:55:15.166Z,23.93
2018-01-29T00:57:42.810Z,23.63
2018-01-29T01:00:10.524Z,26.00
2018-01-29T01:02:38.178Z,25.07
2018-01-29T01:05:05.857Z,24.97
2018-01-29T01:07:33.535Z,22.93
2018-01-29T01:10:01.220Z,23.73
2018-01-29T01:12:28.912Z,23.27
2018-01-29T01:14:56.550Z,23.70
2018-01-29T01:17:24.265Z,23.53
2018-01-29T01:19:53.179Z,21.93
2018-01-29T01:22:20.843Z,21.60
2018-01-29T01:24:48.503Z,20.43
2018-01-29T01:27:16.173Z,22.77
2018-01-29T01:29:43.841Z,21.33
2018-01-29T01:32:11.570Z,21.63
2018-01-29T01:34:40.015Z,20.67
2018-01-29T01:37:08.460Z,19.40
2018-01-29T01:39:36.113Z,20.37
2018-01-29T01:42:03.749Z,19.93
2018-01-29T01:44:32.000Z,18.93
2018-01-29T01:47:00.431Z,18.20
2018-01-29T01:49:30.877Z,16.50
2018-01-29T01:51:58.465Z,17.53
2018-01-29T01:54:26.805Z,18.60
2018-01-29T01:56:54.431Z,17.77
2018-01-29T01:59:22.073Z,19.20
2018-01-29T02:01:50.697Z,17.30
2018-01-29T02:04:18.280Z,16.37
2018-01-29T02:06:45.917Z,15.93
2018-01-29T02:09:13.577Z,17.50
2018-01-29T02:11:41.993Z,16.57
2018-01-29T02:14:09.679Z,14.60
2018-01-29T02:16:37.325Z,14.57
2018-01-29T02:19:05.358Z,14.80
2018-01-29T02:21:33.008Z,14.30
2018-01-29T02:24:00.684Z,14.23
2018-01-29T02:26:28.345Z,14.70
2018-01-29T02:28:56.041Z,14.60
2018-01-29T02:31:23.894Z,15.80
2018-01-29T02:33:51.576Z,13.87
2018-01-29T02:36:19.258Z,13.53
2018-01-29T02:38:46.921Z,14.47
2018-01-29T02:41:14.583Z,15.90
2018-01-29T02:43:42.386Z,14.70
2018-01-29T02:46:10.108Z,14.60
2018-01-29T02:48:37.857Z,13.30
2018-01-29T02:51:05.558Z,14.50
2018-01-29T02:53:33.990Z,14.70
2018-01-29T02:56:01.665Z,15.13
2018-01-29T02:58:29.393Z,14.57
2018-01-29T03:00:57.374Z,13.83
2018-01-29T03:03:25.041Z,13.20
2018-01-29T03:05:52.709Z,12.37
2018-01-29T03:08:20.374Z,13.43
2018-01-29T03:10:47.961Z,13.40
2018-01-29T03:13:15.611Z,13.00
2018-01-29T03:15:43.267Z,12.13
2018-01-29T03:18:10.927Z,13.43
2018-01-29T03:20:38.572Z,13.03
2018-01-29T03:23:06.250Z,13.43
2018-01-29T03:25:33.913Z,11.60
2018-01-29T03:28:01.578Z,11.77
2018-01-29T03:30:29.351Z,12.13
2018-01-29T03:32:57.008Z,12.50
2018-01-29T03:35:24.685Z,11.80
2018-01-29T03:37:52.338Z,12.27
2018-01-29T03:40:19.993Z,11.60
2018-01-29T03:42:47.655Z,10.10
2018-01-29T03:45:15.316Z,9.40
2018-01-29T03:47:42.947Z,10.20
2018-01-29T03:50:10.619Z,10.10
2018-01-29T03:52:38.263Z,9.47
2018-01-29T03:55:06.697Z,9.20
2018-01-29T03:57:34.341Z,10.20
2018-01-29T04:00:02.225Z,9.53
2018-01-29T04:02:29.879Z,9.60
2018-01-29T04:04:57.709Z,9.73
2018-01-29T04:07:25.383Z,11.00
2018-01-29T04:09:53.016Z,9.70
2018-01-29T04:12:20.683Z,10.10
2018-01-29T04:14:49.093Z,10.20
2018-01-29T04:17:16.738Z,10.67
2018-01-29T04:19:44.389Z,10.83
2018-01-29T04:22:12.030Z,10.80
2018-01-29T04:24:39.707Z,10.73
2018-01-29T04:27:07.392Z,11.03
2018-01-29T04:29:35.051Z,10.50
2018-01-29T04:32:03.518Z,10.70
2018-01-29T04:34:31.165Z,11.33
2018-01-29T04:36:58.815Z,10.13
2018-01-29T04:39:26.490Z,11.30
2018-01-29T04:41:54.088Z,10.30
2018-01-29T04:44:25.242Z,11.20
2018-01-29T04:46:52.934Z,12.10
2018-01-29T04:49:20.631Z,12.00
2018-01-29T04:51:48.291Z,11.77
2018-01-29T04:54:15.928Z,10.93
2018-01-29T04:56:43.568Z,10.77
2018-01-29T04:59:11.232Z,11.27
2018-01-29T05:01:38.893Z,10.83
2018-01-29T05:04:06.539Z,10.90
2018-01-29T05:06:34.204Z,11.93
2018-01-29T05:09:01.873Z,11.63
2018-01-29T05:11:30.465Z,12.30
2018-01-29T05:13:58.073Z,12.73
2018-01-29T05:16:25.702Z,12.27
2018-01-29T05:18:53.381Z,12.47
2018-01-29T05:21:21.053Z,12.97
2018-01-29T05:23:48.711Z,13.60
2018-01-29T05:26:16.396Z,12.70
2018-01-29T05:28:44.107Z,12.80
2018-01-29T05:31:11.690Z,12.67
2018-01-29T05:33:39.323Z,14.33
2018-01-29T05:36:08.487Z,14.53
2018-01-29T05:38:37.691Z,13.80
2018-01-29T05:41:05.377Z,14.87
2018-01-29T05:43:33.001Z,14.60
2018-01-29T05:46:00.678Z,15.20
2018-01-29T05:48:28.320Z,13.87
2018-01-29T05:50:55.966Z,13.60
2018-01-29T05:53:23.619Z,14.97
2018-01-29T05:55:51.986Z,14.03
2018-01-29T05:58:19.670Z,14.77
2018-01-29T06:00:49.479Z,13.97
2018-01-29T06:03:17.170Z,12.53
2018-01-29T06:05:44.856Z,14.80
2018-01-29T06:08:12.516Z,13.30
2018-01-29T06:10:40.102Z,15.07
2018-01-29T06:13:07.756Z,13.10
2018-01-29T06:15:35.378Z,13.73
2018-01-29T06:18:03.044Z,13.60
2018-01-29T06:20:30.712Z,12.87
2018-01-29T06:22:58.376Z,13.73
2018-01-29T06:25:26.018Z,13.77
2018-01-29T06:27:53.713Z,13.30
2018-01-29T06:30:24.488Z,10.17
2018-01-29T06:32:52.131Z,10.77
2018-01-29T06:35:19.799Z,11.80
2018-01-29T06:37:47.457Z,9.77
2018-01-29T06:40:15.878Z,11.03
2018-01-29T06:42:43.893Z,11.47
2018-01-29T06:45:12.369Z,11.37
2018-01-29T06:47:40.038Z,11.30
2018-01-29T06:50:08.426Z,12.40
2018-01-29T06:52:36.840Z,12.37
2018-01-29T06:55:04.585Z,14.30
2018-01-29T06:57:32.962Z,13.73
2018-01-29T07:00:02.344Z,12.77
2018-01-29T07:02:29.987Z,14.03
2018-01-29T07:04:57.659Z,13.20
2018-01-29T07:07:25.310Z,13.37
2018-01-29T07:09:52.963Z,13.37
2018-01-29T07:12:21.126Z,13.60
2018-01-29T07:14:49.179Z,13.57
2018-01-29T07:17:16.831Z,13.23
2018-01-29T07:19:44.503Z,12.67
2018-01-29T07:22:12.181Z,13.33
2018-01-29T07:24:39.864Z,13.53
2018-01-29T07:27:07.492Z,13.53
2018-01-29T07:29:35.163Z,12.17
2018-01-29T07:32:02.810Z,13.33
2018-01-29T07:34:30.451Z,13.27
2018-01-29T07:36:58.122Z,12.03
2018-01-29T07:39:26.549Z,13.07
2018-01-29T07:41:54.178Z,9.97
2018-01-29T07:44:21.898Z,11.37
2018-01-29T07:46:49.492Z,10.10
2018-01-29T07:49:17.873Z,11.03
2018-01-29T07:51:45.689Z,10.20
2018-01-29T07:54:13.307Z,10.00
2018-01-29T07:56:40.913Z,9.43
2018-01-29T07:59:08.790Z,9.30
2018-01-29T08:01:37.821Z,7.10
2018-01-29T08:04:05.661Z,4.40
2018-01-29T08:06:33.415Z,4.40
2018-01-29T08:09:01.053Z,3.80
2018-01-29T08:11:28.710Z,4.03
2018-01-29T08:13:56.405Z,3.10
2018-01-29T08:16:24.175Z,3.60
2018-01-29T08:18:55.046Z,4.43
2018-01-29T08:21:24.009Z,3.27
2018-01-29T08:23:51.669Z,2.93
2018-01-29T08:26:19.339Z,3.00
2018-01-29T08:28:46.991Z,2.70
2018-01-29T08:31:14.677Z,3.20
2018-01-29T08:33:43.086Z,3.03
2018-01-29T08:36:10.795Z,2.77
2018-01-29T08:38:38.433Z,2.60
2018-01-29T08:41:06.087Z,2.23
2018-01-29T08:43:33.988Z,2.53
2018-01-29T08:46:02.773Z,2.37
2018-01-29T08:48:31.027Z,2.50
2018-01-29T08:50:59.983Z,2.30
2018-01-29T08:53:28.200Z,2.77
2018-01-29T08:55:56.390Z,2.90
2018-01-29T08:58:24.488Z,2.50
2018-01-29T09:00:52.526Z,2.47
2018-01-29T09:03:20.714Z,2.40
2018-01-29T09:05:48.771Z,2.70
2018-01-29T09:08:16.812Z,3.20
2018-01-29T09:10:45.781Z,2.40
2018-01-29T09:13:14.047Z,2.63
2018-01-29T09:15:41.711Z,1.90
2018-01-29T09:18:09.362Z,2.60
2018-01-29T09:20:37.983Z,2.63
2018-01-29T09:23:05.661Z,2.40
2018-01-29T09:25:33.275Z,2.50
2018-01-29T09:28:00.959Z,2.60
2018-01-29T09:30:29.376Z,2.63
2018-01-29T09:32:57.165Z,2.70
2018-01-29T09:35:24.850Z,2.23
2018-01-29T09:37:52.496Z,2.90
2018-01-29T09:40:20.127Z,2.33
2018-01-29T09:42:47.767Z,2.80
2018-01-29T09:45:16.224Z,2.80
2018-01-29T09:47:43.905Z,2.57
2018-01-29T09:50:12.586Z,2.63
2018-01-29T09:52:40.252Z,2.60
2018-01-29T09:55:07.900Z,2.37
2018-01-29T09:57:35.644Z,2.20
2018-01-29T10:00:08.864Z,1.93
2018-01-29T10:02:36.901Z,2.90
2018-01-29T10:05:04.583Z,2.70
2018-01-29T10:07:32.224Z,3.07
2018-01-29T10:10:02.062Z,2.43
2018-01-29T10:12:29.725Z,2.07
2018-01-29T10:14:57.349Z,2.90
2018-01-29T10:17:24.994Z,3.13
2018-01-29T10:19:53.433Z,2.67
2018-01-29T10:22:21.085Z,2.20
2018-01-29T10:24:48.712Z,2.60
2018-01-29T10:27:16.416Z,2.40
2018-01-29T10:29:44.073Z,2.43
2018-01-29T10:32:11.700Z,2.27
2018-01-29T10:34:39.383Z,2.23
2018-01-29T10:37:07.096Z,2.37
2018-01-29T10:39:34.984Z,2.50
2018-01-29T10:42:02.616Z,2.37
2018-01-29T10:44:33.428Z,2.53
2018-01-29T10:47:01.328Z,1.70
2018-01-29T10:49:29.000Z,2.43
2018-01-29T10:51:56.738Z,2.10
2018-01-29T10:54:24.389Z,2.30
2018-01-29T10:56:52.058Z,2.53
2018-01-29T10:59:19.718Z,2.30
2018-01-29T11:01:53.995Z,2.07
2018-01-29T11:04:21.745Z,2.63
2018-01-29T11:06:50.159Z,2.50
2018-01-29T11:09:17.806Z,2.50
2018-01-29T11:11:45.448Z,2.60
2018-01-29T11:14:13.870Z,2.33
2018-01-29T11:16:41.550Z,2.00
2018-01-29T11:19:09.240Z,2.77
2018-01-29T11:21:36.897Z,2.53
2018-01-29T11:24:04.661Z,2.80
2018-01-29T11:26:32.342Z,2.73
2018-01-29T11:29:00.029Z,2.77
2018-01-29T11:31:30.612Z,2.63
2018-01-29T11:33:58.219Z,2.87
2018-01-29T11:36:25.857Z,3.03
2018-01-29T11:38:53.543Z,3.00
2018-01-29T11:41:21.935Z,3.60
2018-01-29T11:43:49.594Z,3.90
2018-01-29T11:46:17.304Z,3.50
2018-01-29T11:48:45.031Z,3.90
2018-01-29T11:51:12.678Z,4.17
2018-01-29T11:53:41.133Z,3.90
2018-01-29T11:56:08.792Z,3.93
2018-01-29T11:58:36.461Z,3.73
2018-01-29T12:01:06.266Z,3.80
2018-01-29T12:03:33.936Z,3.60
2018-01-29T12:06:01.572Z,3.70
2018-01-29T12:08:29.226Z,3.80
2018-01-29T12:10:56.901Z,3.60
2018-01-29T12:13:24.558Z,3.10
2018-01-29T12:15:52.235Z,2.60
2018-01-29T12:18:19.891Z,2.97
2018-01-29T12:20:47.539Z,2.00
2018-01-29T12:23:15.232Z,1.90
2018-01-29T12:25:42.845Z,2.43
2018-01-29T12:28:10.525Z,2.30
2018-01-29T12:30:39.436Z,2.60
2018-01-29T12:33:07.084Z,2.67
2018-01-29T12:35:34.835Z,2.10
2018-01-29T12:38:02.492Z,2.50
2018-01-29T12:40:30.088Z,2.73
2018-01-29T12:42:57.752Z,2.60
2018-01-29T12:45:25.408Z,1.97
2018-01-29T12:47:53.079Z,2.40
2018-01-29T12:50:20.786Z,2.40
2018-01-29T12:52:48.454Z,2.33
2018-01-29T12:55:16.082Z,2.90
2018-01-29T12:57:44.040Z,2.77
2018-01-29T13:00:12.863Z,3.10
2018-01-29T13:02:46.621Z,3.23
2018-01-29T13:05:14.483Z,3.30
2018-01-29T13:07:42.155Z,3.77
2018-01-29T13:10:09.818Z,3.70
2018-01-29T13:12:37.545Z,3.57
2018-01-29T13:15:06.047Z,4.20
2018-01-29T13:17:33.720Z,4.20
2018-01-29T13:20:01.415Z,4.53
2018-01-29T13:22:29.043Z,4.57
2018-01-29T13:24:56.695Z,4.77
2018-01-29T13:27:24.361Z,5.10
2018-01-29T13:29:55.332Z,5.50
2018-01-29T13:32:23.146Z,5.90
2018-01-29T13:34:51.616Z,5.10
2018-01-29T13:37:19.264Z,5.07
2018-01-29T13:39:47.226Z,5.30
2018-01-29T13:42:15.076Z,4.67
2018-01-29T13:44:42.744Z,4.97
2018-01-29T13:47:10.396Z,4.17
2018-01-29T13:49:38.056Z,3.80
2018-01-29T13:52:05.733Z,3.53
2018-01-29T13:54:33.395Z,3.40
2018-01-29T13:57:01.014Z,3.77
2018-01-29T13:59:29.415Z,3.80
2018-01-29T14:01:57.084Z,3.13
2018-01-29T14:04:24.748Z,3.10
2018-01-29T14:06:52.410Z,3.47
2018-01-29T14:09:20.052Z,3.50
2018-01-29T14:11:47.655Z,3.47
2018-01-29T14:14:15.298Z,4.30
2018-01-29T14:16:42.920Z,3.73
2018-01-29T14:19:10.603Z,4.13
2018-01-29T14:21:38.650Z,4.30
2018-01-29T14:24:06.350Z,4.80
2018-01-29T14:26:33.922Z,4.50
2018-01-29T14:29:01.571Z,4.83
2018-01-29T14:31:29.204Z,5.10
2018-01-29T14:33:56.839Z,5.63
2018-01-29T14:36:24.513Z,5.40
2018-01-29T14:38:52.232Z,5.60
2018-01-29T14:41:19.874Z,5.40
2018-01-29T14:43:48.310Z,6.03
2018-01-29T14:46:15.955Z,6.83
2018-01-29T14:48:43.624Z,6.47
2018-01-29T14:51:12.450Z,6.83
2018-01-29T14:53:40.082Z,7.40
2018-01-29T14:56:07.920Z,7.37
2018-01-29T14:58:35.653Z,8.20
2018-01-29T15:01:03.311Z,7.90
2018-01-29T15:03:30.891Z,8.07
2018-01-29T15:05:58.561Z,8.63
2018-01-29T15:08:26.241Z,8.23
2018-01-29T15:10:53.890Z,8.07
2018-01-29T15:13:21.716Z,8.57
2018-01-29T15:15:49.326Z,7.53
2018-01-29T15:18:16.981Z,7.73
2018-01-29T15:20:47.664Z,7.43
2018-01-29T15:23:15.311Z,6.57
2018-01-29T15:25:42.981Z,7.37
2018-01-29T15:28:10.696Z,7.57
2018-01-29T15:30:39.109Z,7.33
2018-01-29T15:33:06.748Z,6.67
2018-01-29T15:35:35.763Z,6.60
2018-01-29T15:38:04.399Z,6.53
2018-01-29T15:40:32.031Z,6.53
2018-01-29T15:43:00.142Z,6.53
2018-01-29T15:45:28.556Z,6.90
2018-01-29T15:47:56.197Z,6.93
2018-01-29T15:50:25.052Z,6.80
2018-01-29T15:52:52.722Z,6.30
2018-01-29T15:55:20.380Z,6.93
2018-01-29T15:57:48.013Z,7.13
2018-01-29T16:00:15.758Z,7.97
2018-01-29T16:02:43.454Z,8.63
2018-01-29T16:05:15.074Z,8.60
2018-01-29T16:07:43.160Z,9.33
2018-01-29T16:10:10.814Z,10.67
2018-01-29T16:12:38.472Z,10.47
2018-01-29T16:15:06.164Z,10.43
2018-01-29T16:17:33.845Z,11.30
2018-01-29T16:20:01.506Z,11.87
2018-01-29T16:22:29.166Z,12.67
2018-01-29T16:24:56.853Z,11.67
2018-01-29T16:27:24.476Z,13.00
2018-01-29T16:29:52.131Z,13.47
2018-01-29T16:32:19.779Z,13.23
2018-01-29T16:34:47.462Z,13.83
2018-01-29T16:37:15.107Z,12.60
2018-01-29T16:39:43.670Z,14.00
2018-01-29T16:42:12.114Z,11.87
2018-01-29T16:44:39.780Z,13.20
2018-01-29T16:47:07.428Z,11.37
2018-01-29T16:49:35.997Z,12.03
2018-01-29T16:52:03.675Z,12.23
2018-01-29T16:54:31.320Z,11.53
2018-01-29T16:56:58.951Z,9.97
2018-01-29T16:59:26.592Z,9.70
2018-01-29T17:01:55.517Z,9.77
2018-01-29T17:04:23.184Z,9.77
2018-01-29T17:06:50.855Z,8.77
2018-01-29T17:09:18.529Z,8.40
2018-01-29T17:11:46.167Z,9.03
2018-01-29T17:14:14.605Z,9.20
2018-01-29T17:16:42.289Z,9.20
2018-01-29T17:19:09.988Z,7.43
2018-01-29T17:21:37.616Z,8.37
2018-01-29T17:24:05.257Z,7.53
2018-01-29T17:26:32.926Z,7.43
2018-01-29T17:29:00.571Z,7.53
2018-01-29T17:31:28.345Z,6.93
2018-01-29T17:33:56.006Z,6.90
2018-01-29T17:36:23.698Z,6.50
2018-01-29T17:38:52.125Z,6.10
2018-01-29T17:41:19.801Z,6.03
2018-01-29T17:43:47.455Z,7.07
2018-01-29T17:46:15.117Z,7.70
2018-01-29T17:48:43.548Z,8.60
2018-01-29T17:51:11.193Z,8.63
2018-01-29T17:53:39.226Z,9.23
2018-01-29T17:56:06.877Z,9.57
2018-01-29T17:58:34.517Z,11.20
2018-01-29T18:01:04.317Z,11.13
2018-01-29T18:03:31.972Z,10.53
2018-01-29T18:05:59.631Z,10.27
2018-01-29T18:08:27.323Z,10.87
2018-01-29T18:10:54.968Z,8.80
2018-01-29T18:13:22.641Z,9.40
2018-01-29T18:15:50.308Z,9.80
2018-01-29T18:18:18.716Z,6.73
2018-01-29T18:20:46.376Z,7.73
2018-01-29T18:23:14.031Z,7.37
2018-01-29T18:25:41.729Z,7.03
2018-01-29T18:28:09.309Z,6.30
2018-01-29T18:30:37.132Z,7.07
2018-01-29T18:33:05.444Z,6.70
2018-01-29T18:35:33.030Z,6.10
2018-01-29T18:38:00.713Z,3.00
2018-01-29T18:40:29.159Z,2.77
2018-01-29T18:42:56.835Z,2.23
2018-01-29T18:45:24.477Z,1.90
2018-01-29T18:47:52.323Z,2.40
2018-01-29T18:50:19.977Z,2.50
2018-01-29T18:52:47.648Z,2.30
2018-01-29T18:55:15.293Z,2.00
2018-01-29T18:57:42.953Z,1.90
2018-01-29T19:00:12.816Z,2.27
2018-01-29T19:02:40.658Z,2.30
2018-01-29T19:05:08.302Z,2.10
2018-01-29T19:07:35.971Z,2.13
2018-01-29T19:10:03.660Z,3.00
2018-01-29T19:12:31.326Z,3.10
2018-01-29T19:14:59.005Z,3.07
2018-01-29T19:17:26.590Z,3.00
2018-01-29T19:19:54.189Z,2.80
2018-01-29T19:22:21.840Z,2.43
2018-01-29T19:24:49.499Z,2.00
2018-01-29T19:27:18.207Z,1.90
2018-01-29T19:29:46.018Z,1.37
2018-01-29T19:32:13.670Z,0.70
2018-01-29T19:34:41.338Z,0.53
2018-01-29T19:37:08.987Z,0.40
2018-01-29T19:39:36.652Z,0.63
2018-01-29T19:42:04.381Z,0.60
2018-01-29T19:44:32.043Z,0.83
2018-01-29T19:46:59.666Z,0.60
2018-01-29T19:49:27.364Z,0.60
2018-01-29T19:52:01.004Z,0.73
2018-01-29T19:54:28.645Z,0.50
2018-01-29T19:56:56.314Z,0.70
2018-01-29T19:59:23.976Z,1.00
2018-01-29T20:01:51.651Z,0.80
2018-01-29T20:04:19.281Z,0.77
2018-01-29T20:06:46.936Z,0.80
2018-01-29T20:09:14.586Z,1.13
2018-01-29T20:11:42.263Z,1.20
2018-01-29T20:14:10.695Z,0.83
2018-01-29T20:16:38.409Z,1.27
2018-01-29T20:19:06.048Z,1.20
2018-01-29T20:21:36.645Z,1.70
2018-01-29T20:24:05.227Z,1.37
2018-01-29T20:26:32.900Z,1.50
2018-01-29T20:29:00.571Z,1.30
2018-01-29T20:31:28.254Z,1.60
2018-01-29T20:33:55.901Z,1.70
2018-01-29T20:36:23.558Z,1.87
2018-01-29T20:38:51.257Z,2.27
2018-01-29T20:41:18.927Z,2.40
2018-01-29T20:43:46.547Z,2.40
2018-01-29T20:46:14.194Z,2.80
2018-01-29T20:48:41.852Z,2.83
2018-01-29T20:51:10.473Z,2.50
2018-01-29T20:53:38.132Z,2.90
2018-01-29T20:56:05.791Z,2.43
2018-01-29T20:58:33.475Z,2.73
2018-01-29T21:01:01.103Z,2.67
2018-01-29T21:03:28.757Z,2.70
2018-01-29T21:05:56.395Z,2.40
2018-01-29T21:08:24.037Z,2.50
2018-01-29T21:10:51.700Z,2.90
2018-01-29T21:13:20.136Z,2.50
2018-01-29T21:15:47.817Z,2.70
2018-01-29T21:18:15.484Z,2.67
2018-01-29T21:20:44.069Z,2.23
2018-01-29T21:23:11.737Z,2.40
2018-01-29T21:25:39.405Z,2.30
2018-01-29T21:28:07.123Z,2.73
2018-01-29T21:30:34.756Z,2.73
2018-01-29T21:33:02.452Z,2.40
2018-01-29T21:35:30.103Z,2.93
2018-01-29T21:37:57.756Z,2.53
2018-01-29T21:40:25.447Z,2.47
2018-01-29T21:42:53.106Z,2.83
2018-01-29T21:45:20.733Z,2.60
2018-01-29T21:47:49.150Z,2.70
2018-01-29T21:50:17.696Z,2.80
2018-01-29T21:52:45.365Z,2.60
2018-01-29T21:55:12.999Z,2.40
2018-01-29T21:57:42.339Z,2.83
2018-01-29T22:00:13.181Z,2.60
2018-01-29T22:02:40.862Z,2.40
2018-01-29T22:05:08.633Z,2.60
2018-01-29T22:07:36.419Z,3.40
2018-01-29T22:10:07.297Z,2.67
2018-01-29T22:12:34.987Z,2.60
2018-01-29T22:15:03.364Z,2.27
2018-01-29T22:17:31.051Z,2.70
2018-01-29T22:19:58.707Z,3.00
2018-01-29T22:22:26.294Z,3.00
2018-01-29T22:24:54.006Z,2.40
2018-01-29T22:27:21.655Z,2.50
2018-01-29T22:29:50.051Z,2.23
2018-01-29T22:32:18.576Z,2.67
2018-01-29T22:34:46.256Z,2.40
2018-01-29T22:37:13.926Z,2.90
2018-01-29T22:39:42.354Z,2.60
2018-01-29T22:42:09.998Z,3.30
2018-01-29T22:44:37.662Z,3.07
2018-01-29T22:47:05.308Z,2.70
2018-01-29T22:49:33.748Z,2.80
2018-01-29T22:52:01.401Z,3.63
2018-01-29T22:54:29.082Z,2.80
2018-01-29T22:56:56.712Z,2.93
2018-01-29T22:59:24.378Z,3.03
2018-01-29T23:01:52.254Z,3.00
2018-01-29T23:04:19.879Z,3.00
2018-01-29T23:06:47.530Z,2.43
2018-01-29T23:09:15.204Z,2.57
2018-01-29T23:11:44.168Z,2.60
2018-01-29T23:14:11.800Z,3.03
2018-01-29T23:16:39.456Z,3.40
2018-01-29T23:19:07.087Z,2.83
2018-01-29T23:21:34.760Z,3.27
2018-01-29T23:24:02.418Z,2.67
2018-01-29T23:26:30.074Z,2.90
2018-01-29T23:28:57.700Z,3.27
2018-01-29T23:31:28.461Z,3.07
2018-01-29T23:33:56.907Z,2.80
2018-01-29T23:36:24.491Z,2.20
2018-01-29T23:38:52.143Z,3.43
2018-01-29T23:41:19.811Z,2.60
2018-01-29T23:43:47.473Z,3.40
2018-01-29T23:46:15.132Z,3.67
2018-01-29T23:48:43.141Z,2.80
2018-01-29T23:51:10.799Z,3.07
2018-01-29T23:53:38.468Z,2.80
2018-01-29T23:56:06.144Z,2.97
2018-01-29T23:58:33.845Z,3.33
